createdAt,value
2023-08-31T00:01:04.883Z,18.10
2023-08-31T00:03:33.128Z,18.05
2023-08-31T00:06:03.210Z,18.40
2023-08-31T00:08:29.932Z,18.07
2023-08-31T00:11:03.465Z,17.95
2023-08-31T00:13:30.621Z,17.86
2023-08-31T00:15:58.896Z,17.84
2023-08-31T00:18:26.825Z,18.02
2023-08-31T00:20:54.227Z,18.09
2023-08-31T00:23:21.193Z,18.08
2023-08-31T00:25:51.858Z,18.30
2023-08-31T00:28:19.332Z,18.17
2023-08-31T00:30:47.095Z,18.11
2023-08-31T00:33:14.344Z,18.10
2023-08-31T00:35:47.918Z,18.06
2023-08-31T00:38:15.438Z,17.99
2023-08-31T00:40:45.788Z,17.92
2023-08-31T00:43:16.425Z,17.78
2023-08-31T00:45:44.339Z,17.52
2023-08-31T00:48:13.169Z,17.45
2023-08-31T00:50:39.856Z,17.44
2023-08-31T00:53:06.958Z,17.56
2023-08-31T00:55:34.198Z,17.69
2023-08-31T00:58:01.359Z,17.68
2023-08-31T01:00:43.587Z,17.52
2023-08-31T01:03:17.044Z,17.63
2023-08-31T01:05:52.045Z,17.50
2023-08-31T01:08:42.984Z,17.45
2023-08-31T01:11:28.289Z,17.33
2023-08-31T01:14:05.063Z,17.32
2023-08-31T01:16:35.084Z,17.34
2023-08-31T01:19:06.991Z,17.32
2023-08-31T01:21:41.273Z,17.28
2023-08-31T01:24:09.625Z,17.11
2023-08-31T01:26:36.935Z,17.39
2023-08-31T01:29:03.916Z,17.21
2023-08-31T01:31:30.550Z,17.07
2023-08-31T01:33:57.255Z,17.08
2023-08-31T01:36:29.369Z,17.04
2023-08-31T01:39:26.564Z,16.98
2023-08-31T01:41:59.302Z,17.07
2023-08-31T01:44:27.199Z,17.19
2023-08-31T01:46:55.248Z,17.28
2023-08-31T01:49:25.024Z,17.14
2023-08-31T01:51:51.669Z,17.08
2023-08-31T01:54:18.724Z,16.86
2023-08-31T01:56:45.340Z,16.85
2023-08-31T01:59:12.047Z,16.84
2023-08-31T02:01:38.820Z,16.73
2023-08-31T02:04:06.295Z,16.58
2023-08-31T02:06:33.033Z,16.56
2023-08-31T02:09:00.039Z,16.53
2023-08-31T02:11:27.193Z,16.74
2023-08-31T02:13:55.916Z,16.76
2023-08-31T02:16:22.689Z,16.68
2023-08-31T02:18:49.247Z,16.66
2023-08-31T02:21:16.885Z,16.60
2023-08-31T02:23:43.565Z,16.51
2023-08-31T02:26:12.200Z,16.46
2023-08-31T02:28:38.813Z,16.65
2023-08-31T02:31:05.695Z,16.54
2023-08-31T02:33:32.375Z,16.42
2023-08-31T02:35:59.800Z,16.36
2023-08-31T02:38:27.235Z,16.56
2023-08-31T02:40:54.420Z,16.66
2023-08-31T02:43:21.188Z,16.52
2023-08-31T02:45:49.662Z,16.44
2023-08-31T02:48:16.449Z,16.40
2023-08-31T02:50:43.057Z,16.44
2023-08-31T02:53:10.651Z,16.41
2023-08-31T02:55:37.563Z,16.44
2023-08-31T02:58:04.497Z,16.48
2023-08-31T03:00:32.408Z,17.09
2023-08-31T03:02:59.042Z,17.36
2023-08-31T03:05:25.744Z,17.28
2023-08-31T03:07:52.397Z,17.24
2023-08-31T03:10:19.218Z,17.29
2023-08-31T03:12:45.817Z,17.41
2023-08-31T03:15:12.360Z,17.23
2023-08-31T03:17:39.650Z,17.23
2023-08-31T03:20:07.502Z,17.39
2023-08-31T03:22:34.292Z,17.39
2023-08-31T03:25:00.830Z,17.49
2023-08-31T03:27:27.647Z,17.56
2023-08-31T03:29:54.433Z,17.38
2023-08-31T03:32:21.046Z,17.35
2023-08-31T03:34:47.782Z,17.07
2023-08-31T03:37:14.824Z,17.13
2023-08-31T03:39:43.704Z,17.09
2023-08-31T03:42:10.844Z,17.18
2023-08-31T03:44:38.630Z,17.20
2023-08-31T03:47:05.490Z,17.18
2023-08-31T03:49:32.969Z,17.01
2023-08-31T03:51:59.834Z,17.06
2023-08-31T03:54:27.486Z,16.91
2023-08-31T03:56:54.153Z,16.99
2023-08-31T03:59:20.970Z,17.10
2023-08-31T04:01:47.688Z,16.99
2023-08-31T04:04:14.519Z,17.07
2023-08-31T04:06:41.296Z,17.01
2023-08-31T04:09:08.065Z,17.16
2023-08-31T04:11:35.040Z,17.25
2023-08-31T04:14:03.601Z,17.43
2023-08-31T04:16:30.516Z,17.56
2023-08-31T04:18:57.420Z,17.47
2023-08-31T04:21:24.499Z,17.50
2023-08-31T04:23:51.033Z,17.60
2023-08-31T04:26:18.544Z,17.40
2023-08-31T04:28:45.231Z,17.08
2023-08-31T04:31:12.331Z,17.33
2023-08-31T04:33:41.214Z,17.10
2023-08-31T04:36:08.080Z,17.11
2023-08-31T04:38:38.976Z,17.00
2023-08-31T04:41:05.795Z,16.87
2023-08-31T04:43:32.574Z,17.08
2023-08-31T04:45:59.454Z,17.15
2023-08-31T04:48:26.170Z,16.96
2023-08-31T04:50:58.028Z,17.15
2023-08-31T04:53:25.070Z,17.11
2023-08-31T04:55:51.969Z,17.15
2023-08-31T04:58:18.977Z,17.05
2023-08-31T05:00:45.590Z,17.11
2023-08-31T05:03:12.596Z,17.06
2023-08-31T05:05:39.486Z,17.09
2023-08-31T05:08:06.788Z,16.99
2023-08-31T05:10:33.424Z,17.04
2023-08-31T05:13:00.871Z,17.08
2023-08-31T05:15:31.255Z,16.99
2023-08-31T05:17:58.327Z,16.90
2023-08-31T05:20:24.991Z,16.97
2023-08-31T05:22:51.685Z,16.93
2023-08-31T05:25:18.862Z,16.95
2023-08-31T05:27:45.751Z,17.03
2023-08-31T05:30:13.139Z,17.07
2023-08-31T05:32:40.004Z,16.99
2023-08-31T05:35:07.954Z,16.92
2023-08-31T05:37:36.416Z,16.87
2023-08-31T05:40:11.434Z,17.13
2023-08-31T05:42:38.397Z,16.87
2023-08-31T05:45:05.393Z,16.91
2023-08-31T05:47:32.744Z,16.93
2023-08-31T05:49:59.377Z,16.94
2023-08-31T05:52:26.010Z,16.90
2023-08-31T05:54:53.397Z,17.01
2023-08-31T05:57:20.802Z,16.73
2023-08-31T05:59:48.410Z,16.85
2023-08-31T06:02:15.358Z,16.90
2023-08-31T06:04:41.915Z,17.01
2023-08-31T06:07:08.544Z,17.27
2023-08-31T06:09:35.084Z,17.08
2023-08-31T06:12:01.755Z,17.07
2023-08-31T06:14:28.255Z,17.07
2023-08-31T06:16:56.145Z,17.11
2023-08-31T06:19:22.710Z,16.95
2023-08-31T06:21:49.463Z,17.02
2023-08-31T06:24:16.134Z,17.01
2023-08-31T06:26:43.302Z,17.19
2023-08-31T06:29:11.693Z,17.36
2023-08-31T06:31:38.387Z,16.83
2023-08-31T06:34:07.975Z,16.69
2023-08-31T06:36:34.908Z,16.73
2023-08-31T06:39:01.587Z,16.83
2023-08-31T06:41:28.426Z,16.82
2023-08-31T06:43:54.987Z,16.93
2023-08-31T06:46:25.100Z,17.01
2023-08-31T06:48:53.495Z,17.23
2023-08-31T06:51:22.055Z,17.32
2023-08-31T06:53:49.818Z,17.36
2023-08-31T06:56:16.352Z,17.22
2023-08-31T06:58:44.043Z,17.09
2023-08-31T07:01:13.310Z,17.15
2023-08-31T07:03:40.020Z,17.05
2023-08-31T07:06:06.659Z,17.38
2023-08-31T07:08:33.351Z,17.63
2023-08-31T07:11:00.438Z,17.44
2023-08-31T07:13:27.016Z,18.13
2023-08-31T07:15:53.908Z,18.15
2023-08-31T07:18:20.687Z,17.87
2023-08-31T07:20:47.521Z,17.81
2023-08-31T07:23:15.181Z,17.86
2023-08-31T07:25:43.179Z,17.72
2023-08-31T07:28:10.688Z,17.69
2023-08-31T07:30:38.104Z,17.83
2023-08-31T07:33:14.218Z,17.92
2023-08-31T07:35:51.727Z,17.78
2023-08-31T07:38:18.252Z,17.74
2023-08-31T07:40:45.282Z,17.79
2023-08-31T07:43:12.439Z,18.04
2023-08-31T07:45:39.423Z,17.92
2023-08-31T07:48:07.011Z,18.04
2023-08-31T07:50:35.350Z,18.13
2023-08-31T07:53:02.454Z,18.26
2023-08-31T07:55:29.481Z,18.36
2023-08-31T07:57:56.026Z,18.49
2023-08-31T08:00:22.785Z,18.59
2023-08-31T08:02:49.451Z,18.64
2023-08-31T08:05:16.383Z,18.75
2023-08-31T08:07:45.846Z,18.95
2023-08-31T08:10:13.209Z,19.03
2023-08-31T08:12:47.704Z,19.23
2023-08-31T08:15:15.335Z,19.04
2023-08-31T08:17:41.918Z,19.06
2023-08-31T08:20:09.110Z,19.19
2023-08-31T08:22:37.144Z,19.07
2023-08-31T08:25:04.793Z,19.42
2023-08-31T08:27:32.794Z,19.12
2023-08-31T08:30:02.483Z,19.22
2023-08-31T08:32:29.213Z,19.40
2023-08-31T08:34:55.949Z,19.23
2023-08-31T08:37:22.956Z,19.27
2023-08-31T08:39:51.426Z,19.16
2023-08-31T08:42:20.272Z,19.33
2023-08-31T08:44:47.891Z,19.47
2023-08-31T08:47:15.045Z,19.48
2023-08-31T08:49:43.474Z,19.79
2023-08-31T08:52:10.888Z,19.67
2023-08-31T08:54:40.459Z,19.93
2023-08-31T08:57:07.537Z,20.12
2023-08-31T08:59:34.436Z,20.26
2023-08-31T09:02:01.266Z,20.04
2023-08-31T09:04:31.394Z,20.39
2023-08-31T09:06:58.236Z,20.87
2023-08-31T09:09:25.664Z,21.11
2023-08-31T09:11:52.517Z,21.25
2023-08-31T09:14:20.911Z,21.07
2023-08-31T09:16:51.751Z,20.91
2023-08-31T09:19:23.517Z,20.81
2023-08-31T09:21:57.745Z,20.87
2023-08-31T09:24:25.227Z,21.02
2023-08-31T09:26:59.347Z,21.07
2023-08-31T09:29:26.326Z,20.89
2023-08-31T09:31:52.964Z,20.70
2023-08-31T09:34:19.985Z,20.84
2023-08-31T09:36:47.211Z,21.07
2023-08-31T09:39:15.363Z,21.41
2023-08-31T09:41:56.078Z,21.30
2023-08-31T09:44:23.343Z,20.80
2023-08-31T09:46:50.047Z,21.16
2023-08-31T09:49:18.807Z,21.20
2023-08-31T09:51:47.096Z,21.19
2023-08-31T09:54:19.435Z,21.21
2023-08-31T09:56:48.038Z,21.18
2023-08-31T09:59:16.099Z,20.79
2023-08-31T10:01:45.793Z,20.92
2023-08-31T10:04:13.582Z,20.81
2023-08-31T10:06:41.404Z,20.72
2023-08-31T10:09:12.454Z,20.70
2023-08-31T10:11:40.158Z,20.74
2023-08-31T10:14:07.126Z,20.91
2023-08-31T10:16:34.188Z,20.69
2023-08-31T10:19:00.806Z,20.51
2023-08-31T10:21:27.995Z,20.36
2023-08-31T10:23:54.713Z,20.44
2023-08-31T10:26:26.822Z,20.49
2023-08-31T10:28:54.237Z,20.54
2023-08-31T10:31:23.774Z,20.64
2023-08-31T10:34:11.011Z,20.56
2023-08-31T10:36:45.628Z,20.55
2023-08-31T10:39:16.969Z,20.50
2023-08-31T10:41:53.887Z,20.37
2023-08-31T10:44:25.733Z,20.16
2023-08-31T10:46:53.856Z,19.73
2023-08-31T10:49:23.205Z,19.77
2023-08-31T10:51:54.966Z,19.74
2023-08-31T10:54:25.275Z,19.72
2023-08-31T10:57:12.911Z,19.86
2023-08-31T10:59:43.966Z,20.06
2023-08-31T11:02:11.067Z,20.12
2023-08-31T11:05:16.629Z,20.61
2023-08-31T11:07:54.072Z,20.85
2023-08-31T11:10:24.677Z,20.93
2023-08-31T11:12:53.833Z,21.30
2023-08-31T11:15:22.317Z,21.03
2023-08-31T11:17:52.890Z,21.04
2023-08-31T11:20:23.028Z,21.02
2023-08-31T11:22:51.869Z,21.31
2023-08-31T11:25:19.105Z,21.89
2023-08-31T11:28:05.392Z,21.90
2023-08-31T11:30:32.931Z,21.93
2023-08-31T11:33:05.149Z,22.05
2023-08-31T11:35:37.079Z,22.26
2023-08-31T11:38:05.334Z,22.06
2023-08-31T11:40:32.014Z,22.08
2023-08-31T11:43:03.211Z,22.38
2023-08-31T11:45:31.024Z,22.14
2023-08-31T11:47:58.929Z,22.03
2023-08-31T11:50:26.908Z,22.08
2023-08-31T11:52:54.618Z,22.16
2023-08-31T11:55:24.203Z,22.19
2023-08-31T11:57:52.401Z,22.05
2023-08-31T12:00:21.717Z,22.46
2023-08-31T12:03:05.677Z,22.36
2023-08-31T12:05:49.114Z,22.44
2023-08-31T12:08:19.444Z,22.96
2023-08-31T12:10:47.130Z,23.37
2023-08-31T12:13:14.453Z,23.18
2023-08-31T12:15:41.433Z,23.16
2023-08-31T12:18:12.392Z,23.11
2023-08-31T12:20:45.626Z,23.13
2023-08-31T12:23:12.645Z,23.30
2023-08-31T12:25:39.934Z,23.14
2023-08-31T12:28:06.584Z,23.17
2023-08-31T12:30:33.196Z,23.19
2023-08-31T12:32:59.775Z,23.09
2023-08-31T12:35:26.653Z,23.06
2023-08-31T12:37:53.209Z,23.34
2023-08-31T12:40:21.032Z,23.20
2023-08-31T12:42:48.157Z,23.05
2023-08-31T12:45:14.852Z,22.89
2023-08-31T12:47:41.479Z,22.62
2023-08-31T12:50:08.932Z,22.68
2023-08-31T12:52:35.578Z,22.68
2023-08-31T12:55:02.773Z,22.54
2023-08-31T12:57:29.602Z,22.44
2023-08-31T12:59:56.165Z,22.47
2023-08-31T13:02:23.136Z,22.76
2023-08-31T13:04:50.872Z,22.59
2023-08-31T13:07:17.576Z,22.78
2023-08-31T13:09:44.726Z,22.72
2023-08-31T13:12:11.990Z,22.87
2023-08-31T13:14:39.972Z,22.89
2023-08-31T13:17:07.326Z,22.88
2023-08-31T13:19:34.049Z,22.85
2023-08-31T13:22:00.808Z,23.39
2023-08-31T13:24:27.428Z,23.45
2023-08-31T13:26:54.068Z,23.19
2023-08-31T13:29:20.792Z,23.05
2023-08-31T13:31:47.642Z,23.07
2023-08-31T13:34:16.434Z,23.03
2023-08-31T13:36:43.442Z,22.95
2023-08-31T13:39:10.763Z,22.47
2023-08-31T13:41:37.791Z,22.78
2023-08-31T13:44:04.629Z,22.65
2023-08-31T13:46:32.584Z,22.54
2023-08-31T13:48:59.455Z,22.38
2023-08-31T13:51:26.274Z,22.13
2023-08-31T13:53:52.876Z,22.13
2023-08-31T13:56:19.500Z,22.07
2023-08-31T13:58:46.121Z,22.37
2023-08-31T14:01:14.515Z,22.54
2023-08-31T14:03:42.319Z,22.58
2023-08-31T14:06:09.451Z,22.78
2023-08-31T14:08:36.482Z,22.61
2023-08-31T14:11:03.000Z,22.62
2023-08-31T14:13:29.676Z,22.34
2023-08-31T14:15:56.303Z,22.38
2023-08-31T14:18:23.102Z,22.09
2023-08-31T14:20:49.654Z,22.04
2023-08-31T14:23:16.976Z,21.95
2023-08-31T14:25:43.612Z,21.46
2023-08-31T14:28:10.696Z,21.08
2023-08-31T14:30:38.102Z,21.10
2023-08-31T14:33:05.582Z,21.00
2023-08-31T14:35:32.312Z,20.89
2023-08-31T14:38:00.717Z,20.97
2023-08-31T14:40:27.383Z,21.00
2023-08-31T14:42:56.329Z,20.89
2023-08-31T14:45:25.622Z,20.36
2023-08-31T14:47:52.330Z,20.51
2023-08-31T14:50:18.947Z,20.58
2023-08-31T14:52:45.915Z,20.43
2023-08-31T14:55:12.563Z,20.42
2023-08-31T14:57:43.055Z,20.54
2023-08-31T15:00:12.374Z,20.12
2023-08-31T15:02:39.285Z,20.28
2023-08-31T15:05:06.363Z,20.15
2023-08-31T15:07:33.549Z,20.02
2023-08-31T15:10:01.048Z,20.10
2023-08-31T15:12:27.670Z,20.40
2023-08-31T15:14:54.959Z,20.66
2023-08-31T15:17:21.515Z,20.84
2023-08-31T15:19:52.621Z,20.77
2023-08-31T15:22:20.244Z,20.81
2023-08-31T15:24:47.649Z,20.74
2023-08-31T15:27:14.790Z,20.88
2023-08-31T15:29:41.464Z,20.79
2023-08-31T15:32:08.942Z,20.80
2023-08-31T15:34:35.777Z,20.83
2023-08-31T15:37:03.759Z,20.61
2023-08-31T15:39:31.531Z,20.88
2023-08-31T15:41:58.425Z,20.58
2023-08-31T15:44:25.463Z,20.56
2023-08-31T15:46:52.519Z,20.59
2023-08-31T15:49:19.517Z,20.93
2023-08-31T15:51:46.533Z,20.90
2023-08-31T15:54:13.269Z,20.73
2023-08-31T15:56:39.845Z,20.72
2023-08-31T15:59:06.525Z,20.74
2023-08-31T16:01:33.195Z,20.92
2023-08-31T16:04:00.034Z,20.72
2023-08-31T16:06:26.751Z,20.54
2023-08-31T16:08:53.576Z,20.42
2023-08-31T16:11:23.551Z,20.29
2023-08-31T16:13:50.515Z,19.87
2023-08-31T16:16:17.619Z,20.53
2023-08-31T16:18:44.555Z,20.84
2023-08-31T16:21:11.468Z,20.96
2023-08-31T16:23:38.072Z,20.88
2023-08-31T16:26:04.868Z,21.19
2023-08-31T16:28:31.791Z,21.23
2023-08-31T16:30:58.494Z,21.25
2023-08-31T16:33:26.023Z,21.36
2023-08-31T16:36:06.645Z,21.49
2023-08-31T16:38:33.358Z,21.62
2023-08-31T16:41:00.054Z,21.80
2023-08-31T16:43:27.839Z,21.79
2023-08-31T16:45:54.591Z,21.54
2023-08-31T16:48:21.731Z,21.54
2023-08-31T16:50:49.466Z,21.56
2023-08-31T16:53:16.203Z,21.55
2023-08-31T16:55:45.639Z,21.74
2023-08-31T16:58:12.678Z,21.13
2023-08-31T17:00:39.707Z,21.47
2023-08-31T17:03:06.802Z,21.31
2023-08-31T17:05:34.068Z,21.35
2023-08-31T17:08:00.897Z,21.45
2023-08-31T17:10:27.648Z,21.22
2023-08-31T17:12:54.246Z,21.16
2023-08-31T17:15:20.895Z,21.09
2023-08-31T17:17:49.224Z,21.07
2023-08-31T17:20:20.089Z,21.57
2023-08-31T17:22:47.522Z,21.66
2023-08-31T17:25:14.285Z,21.88
2023-08-31T17:27:41.280Z,21.97
2023-08-31T17:30:08.590Z,21.76
2023-08-31T17:32:38.685Z,21.84
2023-08-31T17:35:07.249Z,21.76
2023-08-31T17:37:34.961Z,21.69
2023-08-31T17:40:05.918Z,21.57
2023-08-31T17:42:33.369Z,21.50
2023-08-31T17:45:00.011Z,21.54
2023-08-31T17:47:26.743Z,21.46
2023-08-31T17:49:53.977Z,21.20
2023-08-31T17:52:21.117Z,21.20
2023-08-31T17:54:47.928Z,21.23
2023-08-31T17:57:15.899Z,21.34
2023-08-31T17:59:42.870Z,21.45
2023-08-31T18:02:09.822Z,21.23
2023-08-31T18:04:39.815Z,21.30
2023-08-31T18:07:06.501Z,21.47
2023-08-31T18:09:37.777Z,21.73
2023-08-31T18:12:09.490Z,21.68
2023-08-31T18:14:37.365Z,21.85
2023-08-31T18:17:04.940Z,21.74
2023-08-31T18:19:31.716Z,21.44
2023-08-31T18:21:58.718Z,21.40
2023-08-31T18:24:25.778Z,21.38
2023-08-31T18:26:52.784Z,21.30
2023-08-31T18:29:19.963Z,21.38
2023-08-31T18:31:46.820Z,21.38
2023-08-31T18:34:13.628Z,21.29
2023-08-31T18:36:40.298Z,21.45
2023-08-31T18:39:08.340Z,21.30
2023-08-31T18:41:37.281Z,21.21
2023-08-31T18:44:04.466Z,21.39
2023-08-31T18:46:31.025Z,21.29
2023-08-31T18:48:58.205Z,21.07
2023-08-31T18:51:24.938Z,20.96
2023-08-31T18:53:51.632Z,21.02
2023-08-31T18:56:18.252Z,21.42
2023-08-31T18:58:45.803Z,21.28
2023-08-31T19:01:12.717Z,21.60
2023-08-31T19:03:39.546Z,21.62
2023-08-31T19:06:06.194Z,21.42
2023-08-31T19:08:33.032Z,21.30
2023-08-31T19:11:08.220Z,21.26
2023-08-31T19:13:35.073Z,21.24
2023-08-31T19:16:02.760Z,21.04
2023-08-31T19:18:29.701Z,20.96
2023-08-31T19:21:10.279Z,20.98
2023-08-31T19:23:44.798Z,20.94
2023-08-31T19:26:11.872Z,20.93
2023-08-31T19:28:40.321Z,20.95
2023-08-31T19:31:07.323Z,20.94
2023-08-31T19:33:34.308Z,20.84
2023-08-31T19:36:00.987Z,20.94
2023-08-31T19:38:27.975Z,20.97
2023-08-31T19:40:54.587Z,20.96
2023-08-31T19:43:21.246Z,21.07
2023-08-31T19:45:47.922Z,21.06
2023-08-31T19:48:19.800Z,21.01
2023-08-31T19:50:47.086Z,20.93
2023-08-31T19:53:14.807Z,20.93
2023-08-31T19:55:41.686Z,21.08
2023-08-31T19:58:09.212Z,21.06
2023-08-31T20:00:35.932Z,21.00
2023-08-31T20:03:03.487Z,20.96
2023-08-31T20:05:30.360Z,20.92
2023-08-31T20:07:57.097Z,20.85
2023-08-31T20:10:24.165Z,20.68
2023-08-31T20:12:51.016Z,20.77
2023-08-31T20:15:18.519Z,20.80
2023-08-31T20:17:45.171Z,20.68
2023-08-31T20:20:12.872Z,20.57
2023-08-31T20:22:40.586Z,20.56
2023-08-31T20:25:07.731Z,20.45
2023-08-31T20:27:34.500Z,20.50
2023-08-31T20:30:01.361Z,20.46
2023-08-31T20:32:27.988Z,20.45
2023-08-31T20:34:55.112Z,20.38
2023-08-31T20:37:23.444Z,20.42
2023-08-31T20:39:50.522Z,20.44
2023-08-31T20:42:17.202Z,20.45
2023-08-31T20:44:43.886Z,20.38
2023-08-31T20:47:12.522Z,20.51
2023-08-31T20:49:39.665Z,20.62
2023-08-31T20:52:06.420Z,20.48
2023-08-31T20:54:34.601Z,20.68
2023-08-31T20:57:02.553Z,20.71
2023-08-31T20:59:30.450Z,20.86
2023-08-31T21:01:57.797Z,20.85
2023-08-31T21:04:24.859Z,20.84
2023-08-31T21:06:51.691Z,20.82
2023-08-31T21:09:18.552Z,20.83
2023-08-31T21:11:45.302Z,20.90
2023-08-31T21:14:12.175Z,20.89
2023-08-31T21:16:39.037Z,20.81
2023-08-31T21:19:06.355Z,20.77
2023-08-31T21:21:33.754Z,20.91
2023-08-31T21:24:00.337Z,20.94
2023-08-31T21:26:28.773Z,20.98
2023-08-31T21:28:55.642Z,20.96
2023-08-31T21:31:22.521Z,21.04
2023-08-31T21:33:49.525Z,21.03
2023-08-31T21:36:16.183Z,20.91
2023-08-31T21:38:44.150Z,21.00
2023-08-31T21:41:10.769Z,20.86
2023-08-31T21:43:37.624Z,20.76
2023-08-31T21:46:05.100Z,20.88
2023-08-31T21:48:32.335Z,20.68
2023-08-31T21:50:59.057Z,20.58
2023-08-31T21:53:26.296Z,20.73
2023-08-31T21:55:52.953Z,20.56
2023-08-31T21:58:19.612Z,20.73
2023-08-31T22:00:46.274Z,20.88
2023-08-31T22:03:12.991Z,20.87
2023-08-31T22:05:42.584Z,20.88
2023-08-31T22:08:09.754Z,20.92
2023-08-31T22:10:39.198Z,21.27
2023-08-31T22:13:07.880Z,21.06
2023-08-31T22:15:34.672Z,21.14
2023-08-31T22:18:02.014Z,21.09
2023-08-31T22:20:31.882Z,21.06
2023-08-31T22:23:00.861Z,21.04
2023-08-31T22:25:29.301Z,20.94
2023-08-31T22:27:58.372Z,20.86
2023-08-31T22:30:28.236Z,20.94
2023-08-31T22:32:55.978Z,20.83
2023-08-31T22:35:24.577Z,20.63
2023-08-31T22:37:52.771Z,20.62
2023-08-31T22:40:19.730Z,20.72
2023-08-31T22:42:46.531Z,20.61
2023-08-31T22:45:13.392Z,20.69
2023-08-31T22:47:40.361Z,20.73
2023-08-31T22:50:09.240Z,20.77
2023-08-31T22:52:37.120Z,20.81
2023-08-31T22:55:04.797Z,20.68
2023-08-31T22:57:31.759Z,20.80
2023-08-31T22:59:58.365Z,20.73
2023-08-31T23:02:25.092Z,20.75
2023-08-31T23:04:51.880Z,20.80
2023-08-31T23:07:18.429Z,20.57
2023-08-31T23:09:44.998Z,20.63
2023-08-31T23:12:12.070Z,20.62
2023-08-31T23:14:38.828Z,20.81
2023-08-31T23:17:05.449Z,20.89
2023-08-31T23:19:32.216Z,20.62
2023-08-31T23:21:58.907Z,20.64
2023-08-31T23:24:25.704Z,20.50
2023-08-31T23:26:52.729Z,20.48
2023-08-31T23:29:19.386Z,20.37
2023-08-31T23:31:46.212Z,20.34
2023-08-31T23:34:12.819Z,20.28
2023-08-31T23:36:40.321Z,20.32
2023-08-31T23:39:10.058Z,20.37
2023-08-31T23:41:37.660Z,20.23
2023-08-31T23:44:05.092Z,20.42
2023-08-31T23:46:31.988Z,20.15
2023-08-31T23:48:58.980Z,20.46
2023-08-31T23:51:27.601Z,20.05
2023-08-31T23:53:54.842Z,20.08
2023-08-31T23:56:21.616Z,19.95
2023-08-31T23:58:48.469Z,19.98
